Amherst, Ohio
Current Conditions -  °F | °C
As of 3:53 PM on Tuesday 21 Oct 2014 (Local Time) from KLPR Reporting Station
Overcast Overcast  
Wind Chill: 40°   Ceiling: 2000
Heat Index: 46°   Visibility: 9mi
Dew Point: 43°   Wind: 15mph
Humidity: 89%   Direction: 350°N
Pressure: 30.02"   Gusts: 24mph
Location:  41.41°N, 82.24°W
Report Text: KLPR 211953Z AUTO 35013G21KT 9SM FEW012 BKN020 OVC026 08/06 A3002 RMK AO2 RAB01E43 SLP169 P0000 T00780061 TSNO
Loading
Personal Weather Stations






























Interactive Weather Map
Tropical Storm Tracking
New forecast layout! Learn more

10-Day Weather Forecast

Advertisements
Track Severe Weather on mobile